sensor_id;sensor_type;location;lat;lon;timestamp;P1;durP1;ratioP1;P2;durP2;ratioP2
12350;SDS011;6240;51.538;7.696;2022-09-13T00:01:21;2.50;;;2.30;;
12350;SDS011;6240;51.538;7.696;2022-09-13T00:03:48;2.70;;;2.50;;
12350;SDS011;6240;51.538;7.696;2022-09-13T00:06:16;2.63;;;2.43;;
12350;SDS011;6240;51.538;7.696;2022-09-13T00:08:44;2.60;;;2.35;;
12350;SDS011;6240;51.538;7.696;2022-09-13T00:11:16;2.60;;;2.40;;
12350;SDS011;6240;51.538;7.696;2022-09-13T00:13:44;2.70;;;2.47;;
12350;SDS011;6240;51.538;7.696;2022-09-13T00:16:12;3.42;;;2.40;;
12350;SDS011;6240;51.538;7.696;2022-09-13T00:18:40;2.35;;;2.15;;
12350;SDS011;6240;51.538;7.696;2022-09-13T00:21:08;2.47;;;2.28;;
12350;SDS011;6240;51.538;7.696;2022-09-13T00:23:35;2.78;;;2.58;;
12350;SDS011;6240;51.538;7.696;2022-09-13T00:26:03;2.70;;;2.50;;
12350;SDS011;6240;51.538;7.696;2022-09-13T00:28:32;2.65;;;2.35;;
12350;SDS011;6240;51.538;7.696;2022-09-13T00:30:59;2.38;;;2.00;;
12350;SDS011;6240;51.538;7.696;2022-09-13T00:33:27;2.40;;;2.20;;
12350;SDS011;6240;51.538;7.696;2022-09-13T00:35:54;3.88;;;2.65;;
12350;SDS011;6240;51.538;7.696;2022-09-13T00:38:21;2.73;;;2.30;;
12350;SDS011;6240;51.538;7.696;2022-09-13T00:40:49;3.60;;;2.30;;
12350;SDS011;6240;51.538;7.696;2022-09-13T00:43:17;2.95;;;2.10;;
12350;SDS011;6240;51.538;7.696;2022-09-13T00:45:45;2.38;;;2.17;;
12350;SDS011;6240;51.538;7.696;2022-09-13T00:48:15;2.95;;;2.42;;
12350;SDS011;6240;51.538;7.696;2022-09-13T00:50:44;3.90;;;2.13;;
12350;SDS011;6240;51.538;7.696;2022-09-13T00:53:14;2.88;;;2.45;;
12350;SDS011;6240;51.538;7.696;2022-09-13T00:55:43;2.33;;;2.10;;
12350;SDS011;6240;51.538;7.696;2022-09-13T00:58:13;2.30;;;2.10;;
12350;SDS011;6240;51.538;7.696;2022-09-13T01:00:42;3.17;;;2.20;;
12350;SDS011;6240;51.538;7.696;2022-09-13T01:03:12;2.67;;;2.22;;
12350;SDS011;6240;51.538;7.696;2022-09-13T01:05:40;2.50;;;2.30;;
12350;SDS011;6240;51.538;7.696;2022-09-13T01:08:09;2.75;;;2.40;;
12350;SDS011;6240;51.538;7.696;2022-09-13T01:10:40;2.55;;;2.35;;
12350;SDS011;6240;51.538;7.696;2022-09-13T01:13:08;4.00;;;2.13;;
12350;SDS011;6240;51.538;7.696;2022-09-13T01:15:37;2.55;;;2.10;;
12350;SDS011;6240;51.538;7.696;2022-09-13T01:18:04;2.22;;;2.10;;
12350;SDS011;6240;51.538;7.696;2022-09-13T01:20:36;2.95;;;2.63;;
12350;SDS011;6240;51.538;7.696;2022-09-13T01:31:21;2.85;;;2.50;;
12350;SDS011;6240;51.538;7.696;2022-09-13T01:33:55;2.17;;;2.07;;
12350;SDS011;6240;51.538;7.696;2022-09-13T01:39:10;2.63;;;2.42;;
12350;SDS011;6240;51.538;7.696;2022-09-13T01:41:51;2.95;;;2.33;;
12350;SDS011;6240;51.538;7.696;2022-09-13T01:44:24;4.68;;;2.30;;
12350;SDS011;6240;51.538;7.696;2022-09-13T01:46:56;2.60;;;2.40;;
12350;SDS011;6240;51.538;7.696;2022-09-13T01:49:28;3.43;;;2.27;;
12350;SDS011;6240;51.538;7.696;2022-09-13T01:51:58;2.58;;;2.35;;
12350;SDS011;6240;51.538;7.696;2022-09-13T01:54:28;2.53;;;2.33;;
12350;SDS011;6240;51.538;7.696;2022-09-13T01:56:57;3.35;;;2.47;;
12350;SDS011;6240;51.538;7.696;2022-09-13T01:59:28;2.20;;;2.00;;
12350;SDS011;6240;51.538;7.696;2022-09-13T02:02:02;2.33;;;2.13;;
12350;SDS011;6240;51.538;7.696;2022-09-13T02:04:32;2.30;;;2.10;;
12350;SDS011;6240;51.538;7.696;2022-09-13T02:07:03;3.93;;;2.53;;
12350;SDS011;6240;51.538;7.696;2022-09-13T02:09:33;2.73;;;2.30;;
12350;SDS011;6240;51.538;7.696;2022-09-13T02:12:02;3.17;;;2.25;;
12350;SDS011;6240;51.538;7.696;2022-09-13T02:14:32;2.33;;;2.13;;
12350;SDS011;6240;51.538;7.696;2022-09-13T02:17:02;5.18;;;2.30;;
12350;SDS011;6240;51.538;7.696;2022-09-13T02:19:30;2.88;;;2.45;;
12350;SDS011;6240;51.538;7.696;2022-09-13T02:21:59;3.67;;;2.07;;
12350;SDS011;6240;51.538;7.696;2022-09-13T02:24:28;2.73;;;2.20;;
12350;SDS011;6240;51.538;7.696;2022-09-13T02:26:57;2.35;;;2.15;;
12350;SDS011;6240;51.538;7.696;2022-09-13T02:29:25;3.33;;;2.40;;
12350;SDS011;6240;51.538;7.696;2022-09-13T02:31:54;2.35;;;2.15;;
12350;SDS011;6240;51.538;7.696;2022-09-13T02:34:24;4.33;;;2.27;;
12350;SDS011;6240;51.538;7.696;2022-09-13T02:36:53;3.47;;;2.17;;
12350;SDS011;6240;51.538;7.696;2022-09-13T02:39:22;3.97;;;2.40;;
12350;SDS011;6240;51.538;7.696;2022-09-13T02:41:51;2.30;;;2.10;;
12350;SDS011;6240;51.538;7.696;2022-09-13T02:44:21;3.50;;;2.30;;
12350;SDS011;6240;51.538;7.696;2022-09-13T02:46:57;2.63;;;2.43;;
12350;SDS011;6240;51.538;7.696;2022-09-13T02:49:27;3.03;;;2.23;;
12350;SDS011;6240;51.538;7.696;2022-09-13T02:51:58;2.67;;;2.03;;
12350;SDS011;6240;51.538;7.696;2022-09-13T02:54:31;2.20;;;1.92;;
12350;SDS011;6240;51.538;7.696;2022-09-13T02:57:02;1.95;;;1.75;;
12350;SDS011;6240;51.538;7.696;2022-09-13T02:59:31;3.15;;;2.20;;
12350;SDS011;6240;51.538;7.696;2022-09-13T03:02:00;3.50;;;2.13;;
12350;SDS011;6240;51.538;7.696;2022-09-13T03:04:30;2.42;;;2.22;;
12350;SDS011;6240;51.538;7.696;2022-09-13T03:06:58;2.00;;;1.90;;
12350;SDS011;6240;51.538;7.696;2022-09-13T03:09:28;2.13;;;2.00;;
12350;SDS011;6240;51.538;7.696;2022-09-13T03:12:01;4.43;;;2.30;;
12350;SDS011;6240;51.538;7.696;2022-09-13T03:14:34;3.45;;;2.22;;
12350;SDS011;6240;51.538;7.696;2022-09-13T03:17:09;2.40;;;2.20;;
12350;SDS011;6240;51.538;7.696;2022-09-13T03:19:42;2.13;;;1.92;;
12350;SDS011;6240;51.538;7.696;2022-09-13T03:22:19;3.80;;;1.83;;
12350;SDS011;6240;51.538;7.696;2022-09-13T03:24:51;3.42;;;2.08;;
12350;SDS011;6240;51.538;7.696;2022-09-13T03:27:26;2.35;;;2.15;;
12350;SDS011;6240;51.538;7.696;2022-09-13T03:29:59;2.80;;;1.98;;
12350;SDS011;6240;51.538;7.696;2022-09-13T03:32:30;2.75;;;2.10;;
12350;SDS011;6240;51.538;7.696;2022-09-13T03:35:05;2.30;;;1.90;;
12350;SDS011;6240;51.538;7.696;2022-09-13T03:37:33;2.53;;;2.03;;
12350;SDS011;6240;51.538;7.696;2022-09-13T03:40:04;2.40;;;2.20;;
12350;SDS011;6240;51.538;7.696;2022-09-13T03:42:33;2.37;;;1.80;;
12350;SDS011;6240;51.538;7.696;2022-09-13T03:45:02;3.53;;;1.95;;
12350;SDS011;6240;51.538;7.696;2022-09-13T03:47:30;2.63;;;2.20;;
12350;SDS011;6240;51.538;7.696;2022-09-13T03:49:58;2.10;;;1.90;;
12350;SDS011;6240;51.538;7.696;2022-09-13T03:52:27;3.08;;;1.88;;
12350;SDS011;6240;51.538;7.696;2022-09-13T03:54:56;2.30;;;2.10;;
12350;SDS011;6240;51.538;7.696;2022-09-13T03:57:24;2.20;;;2.00;;
12350;SDS011;6240;51.538;7.696;2022-09-13T03:59:51;2.17;;;1.95;;
12350;SDS011;6240;51.538;7.696;2022-09-13T04:02:19;3.80;;;2.38;;
12350;SDS011;6240;51.538;7.696;2022-09-13T04:04:47;2.17;;;1.98;;
12350;SDS011;6240;51.538;7.696;2022-09-13T04:07:15;2.55;;;2.35;;
12350;SDS011;6240;51.538;7.696;2022-09-13T04:09:44;2.30;;;2.10;;
12350;SDS011;6240;51.538;7.696;2022-09-13T04:12:12;3.20;;;2.10;;
12350;SDS011;6240;51.538;7.696;2022-09-13T04:14:39;2.75;;;2.20;;
12350;SDS011;6240;51.538;7.696;2022-09-13T04:17:07;2.78;;;2.35;;
12350;SDS011;6240;51.538;7.696;2022-09-13T04:19:34;1.70;;;1.60;;
12350;SDS011;6240;51.538;7.696;2022-09-13T04:22:02;2.33;;;2.10;;
12350;SDS011;6240;51.538;7.696;2022-09-13T04:24:29;3.37;;;2.23;;
12350;SDS011;6240;51.538;7.696;2022-09-13T04:26:57;3.47;;;1.93;;
12350;SDS011;6240;51.538;7.696;2022-09-13T04:29:25;2.42;;;2.08;;
12350;SDS011;6240;51.538;7.696;2022-09-13T04:31:53;2.30;;;2.10;;
12350;SDS011;6240;51.538;7.696;2022-09-13T04:34:20;3.53;;;2.17;;
12350;SDS011;6240;51.538;7.696;2022-09-13T04:36:48;1.87;;;1.77;;
12350;SDS011;6240;51.538;7.696;2022-09-13T04:39:16;2.10;;;1.90;;
12350;SDS011;6240;51.538;7.696;2022-09-13T04:41:44;3.10;;;2.17;;
12350;SDS011;6240;51.538;7.696;2022-09-13T04:44:14;2.10;;;1.90;;
12350;SDS011;6240;51.538;7.696;2022-09-13T04:46:42;1.77;;;1.63;;
12350;SDS011;6240;51.538;7.696;2022-09-13T04:49:09;2.37;;;1.93;;
12350;SDS011;6240;51.538;7.696;2022-09-13T04:51:36;2.28;;;1.95;;
12350;SDS011;6240;51.538;7.696;2022-09-13T04:54:04;2.67;;;2.13;;
12350;SDS011;6240;51.538;7.696;2022-09-13T04:56:31;2.38;;;2.17;;
12350;SDS011;6240;51.538;7.696;2022-09-13T04:58:59;2.47;;;2.00;;
12350;SDS011;6240;51.538;7.696;2022-09-13T05:01:32;3.63;;;2.03;;
12350;SDS011;6240;51.538;7.696;2022-09-13T05:04:02;2.63;;;2.00;;
12350;SDS011;6240;51.538;7.696;2022-09-13T05:06:29;3.20;;;2.23;;
12350;SDS011;6240;51.538;7.696;2022-09-13T05:08:56;2.22;;;2.03;;
12350;SDS011;6240;51.538;7.696;2022-09-13T05:11:24;5.05;;;2.33;;
12350;SDS011;6240;51.538;7.696;2022-09-13T05:13:54;2.33;;;2.13;;
12350;SDS011;6240;51.538;7.696;2022-09-13T05:16:22;4.70;;;2.13;;
12350;SDS011;6240;51.538;7.696;2022-09-13T05:18:51;3.15;;;1.90;;
12350;SDS011;6240;51.538;7.696;2022-09-13T05:21:18;2.10;;;1.80;;
12350;SDS011;6240;51.538;7.696;2022-09-13T05:23:47;2.60;;;2.00;;
12350;SDS011;6240;51.538;7.696;2022-09-13T05:26:15;4.00;;;1.97;;
12350;SDS011;6240;51.538;7.696;2022-09-13T05:28:42;5.78;;;2.28;;
12350;SDS011;6240;51.538;7.696;2022-09-13T05:31:11;2.85;;;2.00;;
12350;SDS011;6240;51.538;7.696;2022-09-13T05:33:46;2.50;;;2.03;;
12350;SDS011;6240;51.538;7.696;2022-09-13T05:36:15;4.17;;;2.20;;
12350;SDS011;6240;51.538;7.696;2022-09-13T05:38:42;2.23;;;2.03;;
12350;SDS011;6240;51.538;7.696;2022-09-13T05:41:09;2.45;;;2.25;;
12350;SDS011;6240;51.538;7.696;2022-09-13T05:43:40;2.43;;;2.23;;
12350;SDS011;6240;51.538;7.696;2022-09-13T05:46:08;5.80;;;2.40;;
12350;SDS011;6240;51.538;7.696;2022-09-13T05:48:37;4.90;;;2.15;;
12350;SDS011;6240;51.538;7.696;2022-09-13T05:51:04;2.90;;;2.28;;
12350;SDS011;6240;51.538;7.696;2022-09-13T05:53:34;1.85;;;1.75;;
12350;SDS011;6240;51.538;7.696;2022-09-13T05:56:03;2.25;;;2.05;;
12350;SDS011;6240;51.538;7.696;2022-09-13T05:58:30;4.03;;;2.30;;
12350;SDS011;6240;51.538;7.696;2022-09-13T06:00:59;3.03;;;2.40;;
12350;SDS011;6240;51.538;7.696;2022-09-13T06:03:26;2.47;;;2.27;;
12350;SDS011;6240;51.538;7.696;2022-09-13T06:05:57;3.03;;;2.30;;
12350;SDS011;6240;51.538;7.696;2022-09-13T06:08:28;2.70;;;2.50;;
12350;SDS011;6240;51.538;7.696;2022-09-13T06:10:58;2.33;;;2.13;;
12350;SDS011;6240;51.538;7.696;2022-09-13T06:13:26;3.83;;;2.40;;
12350;SDS011;6240;51.538;7.696;2022-09-13T06:15:54;2.47;;;2.20;;
12350;SDS011;6240;51.538;7.696;2022-09-13T06:18:21;5.77;;;2.50;;
12350;SDS011;6240;51.538;7.696;2022-09-13T06:20:50;2.42;;;2.22;;
12350;SDS011;6240;51.538;7.696;2022-09-13T06:23:17;3.00;;;2.50;;
12350;SDS011;6240;51.538;7.696;2022-09-13T06:25:44;3.25;;;2.38;;
12350;SDS011;6240;51.538;7.696;2022-09-13T06:28:13;2.40;;;2.20;;
12350;SDS011;6240;51.538;7.696;2022-09-13T06:30:41;2.63;;;2.30;;
12350;SDS011;6240;51.538;7.696;2022-09-13T06:33:12;2.38;;;2.17;;
12350;SDS011;6240;51.538;7.696;2022-09-13T06:35:41;4.28;;;2.92;;
12350;SDS011;6240;51.538;7.696;2022-09-13T06:38:08;3.78;;;2.22;;
12350;SDS011;6240;51.538;7.696;2022-09-13T06:40:35;2.47;;;2.23;;
12350;SDS011;6240;51.538;7.696;2022-09-13T06:43:02;2.97;;;2.00;;
12350;SDS011;6240;51.538;7.696;2022-09-13T06:45:31;3.90;;;2.35;;
12350;SDS011;6240;51.538;7.696;2022-09-13T06:47:59;3.88;;;2.53;;
12350;SDS011;6240;51.538;7.696;2022-09-13T06:50:26;4.23;;;2.33;;
12350;SDS011;6240;51.538;7.696;2022-09-13T06:52:55;3.45;;;2.40;;
12350;SDS011;6240;51.538;7.696;2022-09-13T06:55:22;3.72;;;2.45;;
12350;SDS011;6240;51.538;7.696;2022-09-13T06:57:49;4.13;;;2.45;;
12350;SDS011;6240;51.538;7.696;2022-09-13T07:00:16;4.38;;;2.63;;
12350;SDS011;6240;51.538;7.696;2022-09-13T07:02:45;4.35;;;2.60;;
12350;SDS011;6240;51.538;7.696;2022-09-13T07:05:16;2.88;;;2.38;;
12350;SDS011;6240;51.538;7.696;2022-09-13T07:07:44;4.75;;;2.90;;
12350;SDS011;6240;51.538;7.696;2022-09-13T07:10:12;3.67;;;2.72;;
12350;SDS011;6240;51.538;7.696;2022-09-13T07:12:39;3.47;;;2.60;;
12350;SDS011;6240;51.538;7.696;2022-09-13T07:15:07;3.67;;;2.50;;
12350;SDS011;6240;51.538;7.696;2022-09-13T07:17:34;4.00;;;2.80;;
12350;SDS011;6240;51.538;7.696;2022-09-13T07:20:03;5.80;;;2.92;;
12350;SDS011;6240;51.538;7.696;2022-09-13T07:22:33;3.80;;;3.00;;
12350;SDS011;6240;51.538;7.696;2022-09-13T07:25:02;3.95;;;3.17;;
12350;SDS011;6240;51.538;7.696;2022-09-13T07:27:31;4.43;;;3.03;;
12350;SDS011;6240;51.538;7.696;2022-09-13T07:30:01;5.25;;;3.42;;
12350;SDS011;6240;51.538;7.696;2022-09-13T07:32:32;5.10;;;3.85;;
12350;SDS011;6240;51.538;7.696;2022-09-13T07:35:03;4.40;;;3.75;;
12350;SDS011;6240;51.538;7.696;2022-09-13T07:37:32;4.13;;;3.30;;
12350;SDS011;6240;51.538;7.696;2022-09-13T07:39:59;5.07;;;3.65;;
12350;SDS011;6240;51.538;7.696;2022-09-13T07:42:26;6.18;;;3.30;;
12350;SDS011;6240;51.538;7.696;2022-09-13T07:44:53;7.35;;;3.72;;
12350;SDS011;6240;51.538;7.696;2022-09-13T07:47:20;5.13;;;3.05;;
12350;SDS011;6240;51.538;7.696;2022-09-13T07:49:47;4.75;;;3.38;;
12350;SDS011;6240;51.538;7.696;2022-09-13T07:52:25;5.22;;;3.13;;
12350;SDS011;6240;51.538;7.696;2022-09-13T07:54:55;4.00;;;2.92;;
12350;SDS011;6240;51.538;7.696;2022-09-13T07:57:24;4.65;;;3.00;;
12350;SDS011;6240;51.538;7.696;2022-09-13T07:59:53;5.25;;;2.90;;
12350;SDS011;6240;51.538;7.696;2022-09-13T08:02:21;4.53;;;2.88;;
12350;SDS011;6240;51.538;7.696;2022-09-13T08:04:48;4.03;;;3.15;;
12350;SDS011;6240;51.538;7.696;2022-09-13T08:07:15;6.03;;;2.88;;
12350;SDS011;6240;51.538;7.696;2022-09-13T08:09:44;3.70;;;2.58;;
12350;SDS011;6240;51.538;7.696;2022-09-13T08:12:12;4.60;;;2.70;;
12350;SDS011;6240;51.538;7.696;2022-09-13T08:14:39;4.47;;;2.88;;
12350;SDS011;6240;51.538;7.696;2022-09-13T08:17:06;6.13;;;2.83;;
12350;SDS011;6240;51.538;7.696;2022-09-13T08:19:34;4.10;;;2.63;;
12350;SDS011;6240;51.538;7.696;2022-09-13T08:22:01;4.43;;;2.63;;
12350;SDS011;6240;51.538;7.696;2022-09-13T08:24:29;3.38;;;2.50;;
12350;SDS011;6240;51.538;7.696;2022-09-13T08:26:57;2.05;;;1.80;;
12350;SDS011;6240;51.538;7.696;2022-09-13T08:29:24;4.03;;;2.30;;
12350;SDS011;6240;51.538;7.696;2022-09-13T08:31:52;3.50;;;2.13;;
12350;SDS011;6240;51.538;7.696;2022-09-13T08:34:21;6.75;;;2.20;;
12350;SDS011;6240;51.538;7.696;2022-09-13T08:36:48;4.85;;;2.10;;
12350;SDS011;6240;51.538;7.696;2022-09-13T08:39:15;4.47;;;2.20;;
12350;SDS011;6240;51.538;7.696;2022-09-13T08:41:48;2.83;;;2.08;;
12350;SDS011;6240;51.538;7.696;2022-09-13T08:44:19;8.70;;;2.90;;
12350;SDS011;6240;51.538;7.696;2022-09-13T08:46:50;6.35;;;2.30;;
12350;SDS011;6240;51.538;7.696;2022-09-13T08:49:19;4.90;;;2.50;;
12350;SDS011;6240;51.538;7.696;2022-09-13T08:51:48;5.82;;;2.40;;
12350;SDS011;6240;51.538;7.696;2022-09-13T08:54:16;2.65;;;2.08;;
12350;SDS011;6240;51.538;7.696;2022-09-13T08:56:45;4.22;;;2.58;;
12350;SDS011;6240;51.538;7.696;2022-09-13T08:59:20;4.70;;;2.20;;
12350;SDS011;6240;51.538;7.696;2022-09-13T09:01:53;4.40;;;2.70;;
12350;SDS011;6240;51.538;7.696;2022-09-13T09:04:33;4.65;;;2.70;;
12350;SDS011;6240;51.538;7.696;2022-09-13T09:07:03;3.83;;;2.33;;
12350;SDS011;6240;51.538;7.696;2022-09-13T09:09:33;4.43;;;2.50;;
12350;SDS011;6240;51.538;7.696;2022-09-13T09:12:04;4.30;;;2.55;;
12350;SDS011;6240;51.538;7.696;2022-09-13T09:14:37;4.03;;;2.67;;
12350;SDS011;6240;51.538;7.696;2022-09-13T09:17:10;3.13;;;2.80;;
12350;SDS011;6240;51.538;7.696;2022-09-13T09:19:39;4.63;;;3.20;;
12350;SDS011;6240;51.538;7.696;2022-09-13T09:22:10;7.70;;;3.17;;
12350;SDS011;6240;51.538;7.696;2022-09-13T09:24:39;6.85;;;3.15;;
12350;SDS011;6240;51.538;7.696;2022-09-13T09:27:09;6.22;;;2.60;;
12350;SDS011;6240;51.538;7.696;2022-09-13T09:29:41;5.53;;;3.60;;
12350;SDS011;6240;51.538;7.696;2022-09-13T09:32:11;5.00;;;3.30;;
12350;SDS011;6240;51.538;7.696;2022-09-13T09:34:46;6.43;;;3.60;;
12350;SDS011;6240;51.538;7.696;2022-09-13T09:37:16;7.43;;;3.03;;
12350;SDS011;6240;51.538;7.696;2022-09-13T09:39:46;9.50;;;3.97;;
12350;SDS011;6240;51.538;7.696;2022-09-13T09:42:15;6.18;;;3.45;;
12350;SDS011;6240;51.538;7.696;2022-09-13T09:44:45;4.03;;;3.63;;
12350;SDS011;6240;51.538;7.696;2022-09-13T09:47:15;4.15;;;3.33;;
12350;SDS011;6240;51.538;7.696;2022-09-13T09:49:44;6.47;;;4.03;;
12350;SDS011;6240;51.538;7.696;2022-09-13T09:52:30;9.07;;;3.30;;
12350;SDS011;6240;51.538;7.696;2022-09-13T09:55:00;3.70;;;3.17;;
12350;SDS011;6240;51.538;7.696;2022-09-13T09:57:50;8.50;;;4.25;;
12350;SDS011;6240;51.538;7.696;2022-09-13T10:00:19;5.65;;;4.03;;
12350;SDS011;6240;51.538;7.696;2022-09-13T10:02:47;4.47;;;3.88;;
12350;SDS011;6240;51.538;7.696;2022-09-13T10:05:17;5.88;;;3.78;;
12350;SDS011;6240;51.538;7.696;2022-09-13T10:07:50;6.63;;;4.00;;
12350;SDS011;6240;51.538;7.696;2022-09-13T10:10:19;5.20;;;4.00;;
12350;SDS011;6240;51.538;7.696;2022-09-13T10:12:48;5.15;;;3.65;;
12350;SDS011;6240;51.538;7.696;2022-09-13T10:15:16;4.40;;;4.00;;
12350;SDS011;6240;51.538;7.696;2022-09-13T10:20:29;4.57;;;3.97;;
12350;SDS011;6240;51.538;7.696;2022-09-13T10:23:10;6.85;;;3.72;;
12350;SDS011;6240;51.538;7.696;2022-09-13T10:25:37;8.85;;;4.05;;
12350;SDS011;6240;51.538;7.696;2022-09-13T10:28:05;8.82;;;3.85;;
12350;SDS011;6240;51.538;7.696;2022-09-13T10:30:36;5.15;;;3.60;;
12350;SDS011;6240;51.538;7.696;2022-09-13T10:33:04;5.57;;;3.40;;
12350;SDS011;6240;51.538;7.696;2022-09-13T10:35:34;4.88;;;3.00;;
12350;SDS011;6240;51.538;7.696;2022-09-13T10:38:01;6.35;;;3.33;;
12350;SDS011;6240;51.538;7.696;2022-09-13T10:40:29;4.05;;;3.40;;
12350;SDS011;6240;51.538;7.696;2022-09-13T10:43:05;6.28;;;3.47;;
12350;SDS011;6240;51.538;7.696;2022-09-13T10:45:44;4.75;;;3.35;;
12350;SDS011;6240;51.538;7.696;2022-09-13T10:48:18;4.90;;;3.67;;
12350;SDS011;6240;51.538;7.696;2022-09-13T10:51:03;6.07;;;3.33;;
12350;SDS011;6240;51.538;7.696;2022-09-13T10:53:32;4.57;;;2.90;;
12350;SDS011;6240;51.538;7.696;2022-09-13T10:56:00;7.35;;;2.97;;
12350;SDS011;6240;51.538;7.696;2022-09-13T10:58:27;5.70;;;3.30;;
12350;SDS011;6240;51.538;7.696;2022-09-13T11:06:44;5.40;;;3.80;;
12350;SDS011;6240;51.538;7.696;2022-09-13T11:09:13;6.50;;;2.97;;
12350;SDS011;6240;51.538;7.696;2022-09-13T11:11:42;4.93;;;2.85;;
12350;SDS011;6240;51.538;7.696;2022-09-13T11:14:27;5.85;;;3.22;;
12350;SDS011;6240;51.538;7.696;2022-09-13T11:16:59;4.10;;;2.80;;
12350;SDS011;6240;51.538;7.696;2022-09-13T11:19:34;6.82;;;2.90;;
12350;SDS011;6240;51.538;7.696;2022-09-13T11:22:11;5.82;;;2.58;;
12350;SDS011;6240;51.538;7.696;2022-09-13T11:24:44;3.72;;;2.63;;
12350;SDS011;6240;51.538;7.696;2022-09-13T11:27:16;7.30;;;2.90;;
12350;SDS011;6240;51.538;7.696;2022-09-13T11:30:03;3.78;;;2.60;;
12350;SDS011;6240;51.538;7.696;2022-09-13T11:32:34;5.43;;;2.88;;
12350;SDS011;6240;51.538;7.696;2022-09-13T11:35:13;5.50;;;3.03;;
12350;SDS011;6240;51.538;7.696;2022-09-13T11:37:45;4.95;;;2.90;;
12350;SDS011;6240;51.538;7.696;2022-09-13T11:40:24;7.15;;;3.08;;
12350;SDS011;6240;51.538;7.696;2022-09-13T11:42:56;4.80;;;2.67;;
12350;SDS011;6240;51.538;7.696;2022-09-13T11:45:28;5.90;;;2.45;;
12350;SDS011;6240;51.538;7.696;2022-09-13T11:48:09;4.75;;;2.75;;
12350;SDS011;6240;51.538;7.696;2022-09-13T11:50:41;4.57;;;2.88;;
12350;SDS011;6240;51.538;7.696;2022-09-13T11:53:19;4.90;;;2.88;;
12350;SDS011;6240;51.538;7.696;2022-09-13T11:55:50;8.95;;;2.85;;
12350;SDS011;6240;51.538;7.696;2022-09-13T11:58:21;4.13;;;2.85;;
12350;SDS011;6240;51.538;7.696;2022-09-13T12:00:49;6.25;;;2.90;;
12350;SDS011;6240;51.538;7.696;2022-09-13T12:03:19;3.50;;;2.83;;
12350;SDS011;6240;51.538;7.696;2022-09-13T12:05:50;6.40;;;3.83;;
12350;SDS011;6240;51.538;7.696;2022-09-13T12:08:21;4.63;;;3.15;;
12350;SDS011;6240;51.538;7.696;2022-09-13T12:10:50;5.45;;;3.42;;
12350;SDS011;6240;51.538;7.696;2022-09-13T12:13:19;6.90;;;3.00;;
12350;SDS011;6240;51.538;7.696;2022-09-13T12:15:48;4.25;;;3.28;;
12350;SDS011;6240;51.538;7.696;2022-09-13T12:18:18;5.10;;;3.60;;
12350;SDS011;6240;51.538;7.696;2022-09-13T12:20:47;5.68;;;3.42;;
12350;SDS011;6240;51.538;7.696;2022-09-13T12:23:18;8.70;;;3.78;;
12350;SDS011;6240;51.538;7.696;2022-09-13T12:25:49;5.60;;;3.55;;
12350;SDS011;6240;51.538;7.696;2022-09-13T12:28:18;4.28;;;2.95;;
12350;SDS011;6240;51.538;7.696;2022-09-13T12:30:51;6.95;;;2.70;;
12350;SDS011;6240;51.538;7.696;2022-09-13T12:33:22;4.40;;;3.03;;
12350;SDS011;6240;51.538;7.696;2022-09-13T12:35:58;6.07;;;3.50;;
12350;SDS011;6240;51.538;7.696;2022-09-13T12:38:36;7.05;;;3.50;;
12350;SDS011;6240;51.538;7.696;2022-09-13T12:41:16;4.93;;;3.33;;
12350;SDS011;6240;51.538;7.696;2022-09-13T12:44:16;5.60;;;3.08;;
12350;SDS011;6240;51.538;7.696;2022-09-13T12:47:00;5.18;;;3.33;;
12350;SDS011;6240;51.538;7.696;2022-09-13T12:49:35;5.80;;;3.60;;
12350;SDS011;6240;51.538;7.696;2022-09-13T12:52:08;5.78;;;3.45;;
12350;SDS011;6240;51.538;7.696;2022-09-13T12:57:35;6.50;;;3.70;;
12350;SDS011;6240;51.538;7.696;2022-09-13T13:00:21;6.25;;;3.85;;
12350;SDS011;6240;51.538;7.696;2022-09-13T13:02:51;5.35;;;3.22;;
12350;SDS011;6240;51.538;7.696;2022-09-13T13:05:23;5.40;;;3.38;;
12350;SDS011;6240;51.538;7.696;2022-09-13T13:07:52;5.57;;;4.07;;
12350;SDS011;6240;51.538;7.696;2022-09-13T13:10:23;6.82;;;3.70;;
12350;SDS011;6240;51.538;7.696;2022-09-13T13:12:53;5.30;;;3.80;;
12350;SDS011;6240;51.538;7.696;2022-09-13T13:21:04;6.28;;;3.40;;
12350;SDS011;6240;51.538;7.696;2022-09-13T13:23:32;7.45;;;4.00;;
12350;SDS011;6240;51.538;7.696;2022-09-13T13:26:07;5.68;;;3.95;;
12350;SDS011;6240;51.538;7.696;2022-09-13T13:28:49;7.10;;;4.30;;
12350;SDS011;6240;51.538;7.696;2022-09-13T13:37:03;5.43;;;4.50;;
12350;SDS011;6240;51.538;7.696;2022-09-13T13:39:35;6.90;;;5.05;;
12350;SDS011;6240;51.538;7.696;2022-09-13T13:42:09;10.98;;;5.35;;
12350;SDS011;6240;51.538;7.696;2022-09-13T13:50:32;6.60;;;4.95;;
12350;SDS011;6240;51.538;7.696;2022-09-13T13:53:16;7.75;;;4.70;;
12350;SDS011;6240;51.538;7.696;2022-09-13T13:55:45;8.05;;;4.07;;
12350;SDS011;6240;51.538;7.696;2022-09-13T14:01:01;8.23;;;5.13;;
12350;SDS011;6240;51.538;7.696;2022-09-13T14:03:36;9.18;;;4.63;;
12350;SDS011;6240;51.538;7.696;2022-09-13T14:06:07;7.97;;;5.28;;
12350;SDS011;6240;51.538;7.696;2022-09-13T14:08:42;6.53;;;5.65;;
12350;SDS011;6240;51.538;7.696;2022-09-13T14:11:14;6.60;;;5.53;;
12350;SDS011;6240;51.538;7.696;2022-09-13T14:13:45;8.18;;;5.30;;
12350;SDS011;6240;51.538;7.696;2022-09-13T14:16:19;6.70;;;4.80;;
12350;SDS011;6240;51.538;7.696;2022-09-13T14:19:03;7.28;;;4.70;;
12350;SDS011;6240;51.538;7.696;2022-09-13T14:21:33;5.85;;;4.90;;
12350;SDS011;6240;51.538;7.696;2022-09-13T14:26:50;7.63;;;5.15;;
12350;SDS011;6240;51.538;7.696;2022-09-13T14:29:18;7.47;;;4.57;;
12350;SDS011;6240;51.538;7.696;2022-09-13T14:31:46;5.68;;;4.70;;
12350;SDS011;6240;51.538;7.696;2022-09-13T14:34:19;6.20;;;5.22;;
12350;SDS011;6240;51.538;7.696;2022-09-13T14:36:53;5.25;;;4.72;;
12350;SDS011;6240;51.538;7.696;2022-09-13T14:39:22;5.15;;;4.68;;
12350;SDS011;6240;51.538;7.696;2022-09-13T14:41:56;6.18;;;4.93;;
12350;SDS011;6240;51.538;7.696;2022-09-13T14:44:25;7.20;;;5.20;;
12350;SDS011;6240;51.538;7.696;2022-09-13T14:46:55;6.63;;;4.72;;
12350;SDS011;6240;51.538;7.696;2022-09-13T14:49:28;5.97;;;5.07;;
12350;SDS011;6240;51.538;7.696;2022-09-13T14:52:00;7.28;;;5.25;;
12350;SDS011;6240;51.538;7.696;2022-09-13T14:54:30;7.78;;;5.38;;
12350;SDS011;6240;51.538;7.696;2022-09-13T14:57:00;6.95;;;5.43;;
12350;SDS011;6240;51.538;7.696;2022-09-13T14:59:29;7.60;;;5.13;;
12350;SDS011;6240;51.538;7.696;2022-09-13T15:01:57;10.57;;;5.28;;
12350;SDS011;6240;51.538;7.696;2022-09-13T15:04:24;9.60;;;5.97;;
12350;SDS011;6240;51.538;7.696;2022-09-13T15:07:06;9.18;;;5.57;;
12350;SDS011;6240;51.538;7.696;2022-09-13T15:09:35;6.40;;;5.50;;
12350;SDS011;6240;51.538;7.696;2022-09-13T15:12:19;6.30;;;5.68;;
12350;SDS011;6240;51.538;7.696;2022-09-13T15:17:38;6.78;;;4.80;;
12350;SDS011;6240;51.538;7.696;2022-09-13T15:20:16;7.25;;;5.20;;
12350;SDS011;6240;51.538;7.696;2022-09-13T15:22:45;6.40;;;4.45;;
12350;SDS011;6240;51.538;7.696;2022-09-13T15:25:17;5.95;;;5.05;;
12350;SDS011;6240;51.538;7.696;2022-09-13T15:27:50;6.72;;;4.47;;
12350;SDS011;6240;51.538;7.696;2022-09-13T15:30:22;6.78;;;5.72;;
12350;SDS011;6240;51.538;7.696;2022-09-13T15:33:01;7.20;;;5.03;;
12350;SDS011;6240;51.538;7.696;2022-09-13T15:35:30;7.43;;;5.40;;
12350;SDS011;6240;51.538;7.696;2022-09-13T15:38:06;8.43;;;4.90;;
12350;SDS011;6240;51.538;7.696;2022-09-13T15:40:42;5.57;;;4.65;;
12350;SDS011;6240;51.538;7.696;2022-09-13T15:43:09;6.93;;;4.68;;
12350;SDS011;6240;51.538;7.696;2022-09-13T15:45:37;6.88;;;5.05;;
12350;SDS011;6240;51.538;7.696;2022-09-13T15:48:07;5.78;;;4.70;;
12350;SDS011;6240;51.538;7.696;2022-09-13T15:50:43;4.82;;;4.22;;
12350;SDS011;6240;51.538;7.696;2022-09-13T15:53:16;6.22;;;4.45;;
12350;SDS011;6240;51.538;7.696;2022-09-13T15:55:43;5.32;;;4.45;;
12350;SDS011;6240;51.538;7.696;2022-09-13T15:58:10;5.07;;;3.85;;
12350;SDS011;6240;51.538;7.696;2022-09-13T16:00:37;5.88;;;4.00;;
12350;SDS011;6240;51.538;7.696;2022-09-13T16:03:04;6.72;;;4.97;;
12350;SDS011;6240;51.538;7.696;2022-09-13T16:05:32;4.70;;;3.60;;
12350;SDS011;6240;51.538;7.696;2022-09-13T16:08:00;3.75;;;3.40;;